sensor_id;sensor_type;location;lat;lon;timestamp;temperature;humidity
19945;DHT22;10134;50.952;6.930;2023-05-14T00:01:57;14.60;99.90
19945;DHT22;10134;50.952;6.930;2023-05-14T00:04:24;14.60;99.90
19945;DHT22;10134;50.952;6.930;2023-05-14T00:06:52;14.60;99.90
19945;DHT22;10134;50.952;6.930;2023-05-14T00:09:20;14.50;99.90
19945;DHT22;10134;50.952;6.930;2023-05-14T00:11:47;14.50;99.90
19945;DHT22;10134;50.952;6.930;2023-05-14T00:14:14;14.60;99.90
19945;DHT22;10134;50.952;6.930;2023-05-14T00:16:42;14.60;99.90
19945;DHT22;10134;50.952;6.930;2023-05-14T00:19:09;14.50;99.90
19945;DHT22;10134;50.952;6.930;2023-05-14T00:21:37;14.60;99.90
19945;DHT22;10134;50.952;6.930;2023-05-14T00:24:05;14.60;99.90
19945;DHT22;10134;50.952;6.930;2023-05-14T00:26:32;14.50;99.90
19945;DHT22;10134;50.952;6.930;2023-05-14T00:28:59;14.50;99.90
19945;DHT22;10134;50.952;6.930;2023-05-14T00:31:27;14.50;99.90
19945;DHT22;10134;50.952;6.930;2023-05-14T00:33:55;14.50;99.90
19945;DHT22;10134;50.952;6.930;2023-05-14T00:36:22;14.50;99.90
19945;DHT22;10134;50.952;6.930;2023-05-14T00:38:49;14.40;99.90
19945;DHT22;10134;50.952;6.930;2023-05-14T00:41:17;14.40;99.90
19945;DHT22;10134;50.952;6.930;2023-05-14T00:43:44;14.40;99.90
19945;DHT22;10134;50.952;6.930;2023-05-14T00:46:11;14.40;99.90
19945;DHT22;10134;50.952;6.930;2023-05-14T00:48:40;14.30;99.90
19945;DHT22;10134;50.952;6.930;2023-05-14T00:51:07;14.30;99.90
19945;DHT22;10134;50.952;6.930;2023-05-14T00:53:35;14.30;99.90
19945;DHT22;10134;50.952;6.930;2023-05-14T00:56:02;14.20;99.90
19945;DHT22;10134;50.952;6.930;2023-05-14T00:58:30;14.10;99.90
19945;DHT22;10134;50.952;6.930;2023-05-14T01:00:57;14.10;99.90
19945;DHT22;10134;50.952;6.930;2023-05-14T01:03:25;14.00;99.90
19945;DHT22;10134;50.952;6.930;2023-05-14T01:06:05;14.00;99.90
19945;DHT22;10134;50.952;6.930;2023-05-14T01:08:52;13.90;99.90
19945;DHT22;10134;50.952;6.930;2023-05-14T01:16:40;13.90;99.90
19945;DHT22;10134;50.952;6.930;2023-05-14T01:21:56;13.90;99.90
19945;DHT22;10134;50.952;6.930;2023-05-14T01:24:23;14.00;99.90
19945;DHT22;10134;50.952;6.930;2023-05-14T01:26:50;13.90;99.90
19945;DHT22;10134;50.952;6.930;2023-05-14T01:29:22;13.90;99.90
19945;DHT22;10134;50.952;6.930;2023-05-14T01:31:52;13.80;99.90
19945;DHT22;10134;50.952;6.930;2023-05-14T01:34:23;13.70;99.90
19945;DHT22;10134;50.952;6.930;2023-05-14T01:36:50;13.70;99.90
19945;DHT22;10134;50.952;6.930;2023-05-14T01:39:24;13.70;99.90
19945;DHT22;10134;50.952;6.930;2023-05-14T01:41:53;13.70;99.90
19945;DHT22;10134;50.952;6.930;2023-05-14T01:44:21;13.70;99.90
19945;DHT22;10134;50.952;6.930;2023-05-14T01:46:49;13.70;99.90
19945;DHT22;10134;50.952;6.930;2023-05-14T01:49:16;13.80;99.90
19945;DHT22;10134;50.952;6.930;2023-05-14T01:51:45;13.80;99.90
19945;DHT22;10134;50.952;6.930;2023-05-14T01:54:12;13.70;99.90
19945;DHT22;10134;50.952;6.930;2023-05-14T01:56:39;13.80;99.90
19945;DHT22;10134;50.952;6.930;2023-05-14T01:59:07;13.80;99.90
19945;DHT22;10134;50.952;6.930;2023-05-14T02:01:35;13.80;99.90
19945;DHT22;10134;50.952;6.930;2023-05-14T02:04:02;13.80;99.90
19945;DHT22;10134;50.952;6.930;2023-05-14T02:06:30;13.80;99.90
19945;DHT22;10134;50.952;6.930;2023-05-14T02:08:58;13.80;99.90
19945;DHT22;10134;50.952;6.930;2023-05-14T02:11:25;13.70;99.90
19945;DHT22;10134;50.952;6.930;2023-05-14T02:13:53;13.70;99.90
19945;DHT22;10134;50.952;6.930;2023-05-14T02:16:20;13.60;99.90
19945;DHT22;10134;50.952;6.930;2023-05-14T02:18:47;13.70;99.90
19945;DHT22;10134;50.952;6.930;2023-05-14T02:21:15;13.60;99.90
19945;DHT22;10134;50.952;6.930;2023-05-14T02:23:42;13.50;99.90
19945;DHT22;10134;50.952;6.930;2023-05-14T02:26:10;13.50;99.90
19945;DHT22;10134;50.952;6.930;2023-05-14T02:28:38;13.50;99.90
19945;DHT22;10134;50.952;6.930;2023-05-14T02:31:05;13.50;99.90
19945;DHT22;10134;50.952;6.930;2023-05-14T02:33:33;13.60;99.90
19945;DHT22;10134;50.952;6.930;2023-05-14T02:36:00;13.60;99.90
19945;DHT22;10134;50.952;6.930;2023-05-14T02:38:27;13.60;99.90
19945;DHT22;10134;50.952;6.930;2023-05-14T02:40:55;13.60;99.90
19945;DHT22;10134;50.952;6.930;2023-05-14T02:43:23;13.50;99.90
19945;DHT22;10134;50.952;6.930;2023-05-14T02:45:51;13.40;99.90
19945;DHT22;10134;50.952;6.930;2023-05-14T02:48:18;13.50;99.90
19945;DHT22;10134;50.952;6.930;2023-05-14T02:50:46;13.50;99.90
19945;DHT22;10134;50.952;6.930;2023-05-14T02:53:14;13.50;99.90
19945;DHT22;10134;50.952;6.930;2023-05-14T02:55:41;13.40;99.90
19945;DHT22;10134;50.952;6.930;2023-05-14T02:58:09;13.40;99.90
19945;DHT22;10134;50.952;6.930;2023-05-14T03:00:36;13.30;99.90
19945;DHT22;10134;50.952;6.930;2023-05-14T03:03:04;13.30;99.90
19945;DHT22;10134;50.952;6.930;2023-05-14T03:05:32;13.40;99.90
19945;DHT22;10134;50.952;6.930;2023-05-14T03:07:59;13.30;99.90
19945;DHT22;10134;50.952;6.930;2023-05-14T03:10:27;13.20;99.90
19945;DHT22;10134;50.952;6.930;2023-05-14T03:12:54;13.10;99.90
19945;DHT22;10134;50.952;6.930;2023-05-14T03:15:21;13.10;99.90
19945;DHT22;10134;50.952;6.930;2023-05-14T03:17:49;13.10;99.90
19945;DHT22;10134;50.952;6.930;2023-05-14T03:20:17;13.20;99.90
19945;DHT22;10134;50.952;6.930;2023-05-14T03:22:44;13.20;99.90
19945;DHT22;10134;50.952;6.930;2023-05-14T03:25:11;13.10;99.90
19945;DHT22;10134;50.952;6.930;2023-05-14T03:27:38;13.10;99.90
19945;DHT22;10134;50.952;6.930;2023-05-14T03:30:06;13.10;99.90
19945;DHT22;10134;50.952;6.930;2023-05-14T03:32:34;13.10;99.90
19945;DHT22;10134;50.952;6.930;2023-05-14T03:35:01;13.10;99.90
19945;DHT22;10134;50.952;6.930;2023-05-14T03:37:28;13.10;99.90
19945;DHT22;10134;50.952;6.930;2023-05-14T03:39:56;13.10;99.90
19945;DHT22;10134;50.952;6.930;2023-05-14T03:42:23;13.10;99.90
19945;DHT22;10134;50.952;6.930;2023-05-14T03:44:50;13.00;99.90
19945;DHT22;10134;50.952;6.930;2023-05-14T03:47:17;12.90;99.90
19945;DHT22;10134;50.952;6.930;2023-05-14T03:49:45;13.00;99.90
19945;DHT22;10134;50.952;6.930;2023-05-14T03:52:14;13.00;99.90
19945;DHT22;10134;50.952;6.930;2023-05-14T03:54:43;12.90;99.90
19945;DHT22;10134;50.952;6.930;2023-05-14T03:57:10;12.80;99.90
19945;DHT22;10134;50.952;6.930;2023-05-14T03:59:37;12.70;99.90
19945;DHT22;10134;50.952;6.930;2023-05-14T04:02:05;12.80;99.90
19945;DHT22;10134;50.952;6.930;2023-05-14T04:04:32;12.80;99.90
19945;DHT22;10134;50.952;6.930;2023-05-14T04:07:01;12.70;99.90
19945;DHT22;10134;50.952;6.930;2023-05-14T04:09:28;12.80;99.90
19945;DHT22;10134;50.952;6.930;2023-05-14T04:11:56;12.80;99.90
19945;DHT22;10134;50.952;6.930;2023-05-14T04:14:24;12.80;99.90
19945;DHT22;10134;50.952;6.930;2023-05-14T04:16:51;12.80;99.90
19945;DHT22;10134;50.952;6.930;2023-05-14T04:19:19;12.80;99.90
19945;DHT22;10134;50.952;6.930;2023-05-14T04:21:46;12.70;99.90
19945;DHT22;10134;50.952;6.930;2023-05-14T04:24:14;12.70;99.90
19945;DHT22;10134;50.952;6.930;2023-05-14T04:26:41;12.70;99.90
19945;DHT22;10134;50.952;6.930;2023-05-14T04:29:09;12.60;99.90
19945;DHT22;10134;50.952;6.930;2023-05-14T04:31:36;12.70;99.90
19945;DHT22;10134;50.952;6.930;2023-05-14T04:34:03;12.70;99.90
19945;DHT22;10134;50.952;6.930;2023-05-14T04:36:31;12.60;99.90
19945;DHT22;10134;50.952;6.930;2023-05-14T04:38:58;12.60;99.90
19945;DHT22;10134;50.952;6.930;2023-05-14T04:41:25;12.60;99.90
19945;DHT22;10134;50.952;6.930;2023-05-14T04:43:55;12.70;99.90
19945;DHT22;10134;50.952;6.930;2023-05-14T04:46:22;12.70;99.90
19945;DHT22;10134;50.952;6.930;2023-05-14T04:48:49;12.70;99.90
19945;DHT22;10134;50.952;6.930;2023-05-14T04:51:17;12.80;99.90
19945;DHT22;10134;50.952;6.930;2023-05-14T04:53:45;12.80;99.90
19945;DHT22;10134;50.952;6.930;2023-05-14T04:56:12;12.80;99.90
19945;DHT22;10134;50.952;6.930;2023-05-14T04:58:40;12.80;99.90
19945;DHT22;10134;50.952;6.930;2023-05-14T05:01:07;12.90;99.90
19945;DHT22;10134;50.952;6.930;2023-05-14T05:03:35;12.90;99.90
19945;DHT22;10134;50.952;6.930;2023-05-14T05:06:02;12.90;99.90
19945;DHT22;10134;50.952;6.930;2023-05-14T05:08:30;12.90;99.90
19945;DHT22;10134;50.952;6.930;2023-05-14T05:10:57;12.90;99.90
19945;DHT22;10134;50.952;6.930;2023-05-14T05:13:24;13.00;99.90
19945;DHT22;10134;50.952;6.930;2023-05-14T05:15:51;13.00;99.90
19945;DHT22;10134;50.952;6.930;2023-05-14T05:18:19;13.00;99.90
19945;DHT22;10134;50.952;6.930;2023-05-14T05:20:46;12.90;99.90
19945;DHT22;10134;50.952;6.930;2023-05-14T05:23:14;12.90;99.90
19945;DHT22;10134;50.952;6.930;2023-05-14T05:25:41;12.90;99.90
19945;DHT22;10134;50.952;6.930;2023-05-14T05:28:08;13.00;99.90
19945;DHT22;10134;50.952;6.930;2023-05-14T05:30:36;13.20;99.90
19945;DHT22;10134;50.952;6.930;2023-05-14T05:33:03;13.20;99.90
19945;DHT22;10134;50.952;6.930;2023-05-14T05:35:31;13.30;99.90
19945;DHT22;10134;50.952;6.930;2023-05-14T05:37:58;13.40;99.90
19945;DHT22;10134;50.952;6.930;2023-05-14T05:40:27;13.50;99.90
19945;DHT22;10134;50.952;6.930;2023-05-14T05:42:55;13.60;99.90
19945;DHT22;10134;50.952;6.930;2023-05-14T05:45:22;13.70;99.90
19945;DHT22;10134;50.952;6.930;2023-05-14T05:47:49;13.80;99.90
19945;DHT22;10134;50.952;6.930;2023-05-14T05:50:17;13.80;99.90
19945;DHT22;10134;50.952;6.930;2023-05-14T05:52:46;13.90;99.90
19945;DHT22;10134;50.952;6.930;2023-05-14T05:55:13;13.90;99.90
19945;DHT22;10134;50.952;6.930;2023-05-14T05:57:40;13.90;99.90
19945;DHT22;10134;50.952;6.930;2023-05-14T06:00:08;14.00;99.90
19945;DHT22;10134;50.952;6.930;2023-05-14T06:02:40;14.00;99.90
19945;DHT22;10134;50.952;6.930;2023-05-14T06:05:08;14.00;99.90
19945;DHT22;10134;50.952;6.930;2023-05-14T06:07:37;14.00;99.90
19945;DHT22;10134;50.952;6.930;2023-05-14T06:10:04;14.10;99.90
19945;DHT22;10134;50.952;6.930;2023-05-14T06:12:32;14.10;99.90
19945;DHT22;10134;50.952;6.930;2023-05-14T06:14:59;14.10;99.90
19945;DHT22;10134;50.952;6.930;2023-05-14T06:17:27;14.20;99.90
19945;DHT22;10134;50.952;6.930;2023-05-14T06:19:54;14.20;99.90
19945;DHT22;10134;50.952;6.930;2023-05-14T06:22:21;14.20;99.90
19945;DHT22;10134;50.952;6.930;2023-05-14T06:24:49;14.20;99.90
19945;DHT22;10134;50.952;6.930;2023-05-14T06:27:16;14.20;99.90
19945;DHT22;10134;50.952;6.930;2023-05-14T06:29:43;14.30;99.90
19945;DHT22;10134;50.952;6.930;2023-05-14T06:32:11;14.30;99.90
19945;DHT22;10134;50.952;6.930;2023-05-14T06:34:41;14.40;99.90
19945;DHT22;10134;50.952;6.930;2023-05-14T06:37:09;14.40;99.90
19945;DHT22;10134;50.952;6.930;2023-05-14T06:39:37;14.50;99.90
19945;DHT22;10134;50.952;6.930;2023-05-14T06:42:05;14.50;99.90
19945;DHT22;10134;50.952;6.930;2023-05-14T06:44:33;14.50;99.90
19945;DHT22;10134;50.952;6.930;2023-05-14T06:47:00;14.60;99.90
19945;DHT22;10134;50.952;6.930;2023-05-14T06:49:27;14.70;99.90
19945;DHT22;10134;50.952;6.930;2023-05-14T06:51:55;14.70;99.90
19945;DHT22;10134;50.952;6.930;2023-05-14T06:54:22;14.80;99.90
19945;DHT22;10134;50.952;6.930;2023-05-14T06:56:49;14.80;99.90
19945;DHT22;10134;50.952;6.930;2023-05-14T06:59:18;14.90;99.90
19945;DHT22;10134;50.952;6.930;2023-05-14T07:01:45;14.90;99.90
19945;DHT22;10134;50.952;6.930;2023-05-14T07:04:12;15.00;99.90
19945;DHT22;10134;50.952;6.930;2023-05-14T07:06:40;15.00;99.90
19945;DHT22;10134;50.952;6.930;2023-05-14T07:09:07;15.00;99.90
19945;DHT22;10134;50.952;6.930;2023-05-14T07:11:34;15.10;99.90
19945;DHT22;10134;50.952;6.930;2023-05-14T07:14:02;15.10;99.90
19945;DHT22;10134;50.952;6.930;2023-05-14T07:16:29;15.20;99.90
19945;DHT22;10134;50.952;6.930;2023-05-14T07:18:56;15.20;99.90
19945;DHT22;10134;50.952;6.930;2023-05-14T07:21:24;15.30;99.90
19945;DHT22;10134;50.952;6.930;2023-05-14T07:23:52;15.40;99.90
19945;DHT22;10134;50.952;6.930;2023-05-14T07:26:19;15.40;99.90
19945;DHT22;10134;50.952;6.930;2023-05-14T07:28:47;15.40;99.90
19945;DHT22;10134;50.952;6.930;2023-05-14T07:31:14;15.50;99.90
19945;DHT22;10134;50.952;6.930;2023-05-14T07:33:42;15.60;99.90
19945;DHT22;10134;50.952;6.930;2023-05-14T07:36:09;15.70;99.90
19945;DHT22;10134;50.952;6.930;2023-05-14T07:38:36;15.70;99.90
19945;DHT22;10134;50.952;6.930;2023-05-14T07:41:04;15.80;99.90
19945;DHT22;10134;50.952;6.930;2023-05-14T07:43:31;15.80;99.90
19945;DHT22;10134;50.952;6.930;2023-05-14T07:45:58;15.90;99.90
19945;DHT22;10134;50.952;6.930;2023-05-14T07:48:26;15.90;99.90
19945;DHT22;10134;50.952;6.930;2023-05-14T07:50:53;15.90;99.90
19945;DHT22;10134;50.952;6.930;2023-05-14T07:53:21;16.10;99.90
19945;DHT22;10134;50.952;6.930;2023-05-14T07:55:49;16.00;99.90
19945;DHT22;10134;50.952;6.930;2023-05-14T07:58:17;16.10;99.90
19945;DHT22;10134;50.952;6.930;2023-05-14T08:00:45;16.20;99.90
19945;DHT22;10134;50.952;6.930;2023-05-14T08:03:12;16.20;99.90
19945;DHT22;10134;50.952;6.930;2023-05-14T08:05:39;16.30;99.90
19945;DHT22;10134;50.952;6.930;2023-05-14T08:08:07;16.30;99.90
19945;DHT22;10134;50.952;6.930;2023-05-14T08:10:34;16.40;99.90
19945;DHT22;10134;50.952;6.930;2023-05-14T08:13:02;16.40;99.90
19945;DHT22;10134;50.952;6.930;2023-05-14T08:15:29;16.50;99.90
19945;DHT22;10134;50.952;6.930;2023-05-14T08:17:57;16.50;99.90
19945;DHT22;10134;50.952;6.930;2023-05-14T08:20:29;16.50;99.90
19945;DHT22;10134;50.952;6.930;2023-05-14T08:22:57;16.50;99.90
19945;DHT22;10134;50.952;6.930;2023-05-14T08:25:24;16.60;99.90
19945;DHT22;10134;50.952;6.930;2023-05-14T08:27:52;16.70;99.90
19945;DHT22;10134;50.952;6.930;2023-05-14T08:30:20;16.80;99.90
19945;DHT22;10134;50.952;6.930;2023-05-14T08:32:49;16.80;99.90
19945;DHT22;10134;50.952;6.930;2023-05-14T08:35:17;16.90;99.90
19945;DHT22;10134;50.952;6.930;2023-05-14T08:37:45;17.00;99.90
19945;DHT22;10134;50.952;6.930;2023-05-14T08:40:12;17.00;99.90
19945;DHT22;10134;50.952;6.930;2023-05-14T08:42:39;17.10;99.90
19945;DHT22;10134;50.952;6.930;2023-05-14T08:45:17;17.10;99.90
19945;DHT22;10134;50.952;6.930;2023-05-14T08:47:49;17.20;99.90
19945;DHT22;10134;50.952;6.930;2023-05-14T08:50:17;17.30;99.90
19945;DHT22;10134;50.952;6.930;2023-05-14T08:52:49;17.30;99.90
19945;DHT22;10134;50.952;6.930;2023-05-14T08:55:17;17.40;99.90
19945;DHT22;10134;50.952;6.930;2023-05-14T08:57:45;17.40;99.90
19945;DHT22;10134;50.952;6.930;2023-05-14T09:00:13;17.50;99.90
19945;DHT22;10134;50.952;6.930;2023-05-14T09:02:41;17.50;99.90
19945;DHT22;10134;50.952;6.930;2023-05-14T09:05:10;17.60;99.90
19945;DHT22;10134;50.952;6.930;2023-05-14T09:07:38;17.60;99.90
19945;DHT22;10134;50.952;6.930;2023-05-14T09:10:07;17.70;99.90
19945;DHT22;10134;50.952;6.930;2023-05-14T09:12:35;17.70;99.90
19945;DHT22;10134;50.952;6.930;2023-05-14T09:15:02;17.80;99.90
19945;DHT22;10134;50.952;6.930;2023-05-14T09:17:31;17.80;99.90
19945;DHT22;10134;50.952;6.930;2023-05-14T09:19:59;17.90;99.90
19945;DHT22;10134;50.952;6.930;2023-05-14T09:22:28;17.90;99.90
19945;DHT22;10134;50.952;6.930;2023-05-14T09:25:07;17.90;99.90
19945;DHT22;10134;50.952;6.930;2023-05-14T09:27:35;18.00;99.90
19945;DHT22;10134;50.952;6.930;2023-05-14T09:30:10;18.00;99.90
19945;DHT22;10134;50.952;6.930;2023-05-14T09:32:42;18.10;99.90
19945;DHT22;10134;50.952;6.930;2023-05-14T09:35:18;18.10;99.90
19945;DHT22;10134;50.952;6.930;2023-05-14T09:37:51;18.20;99.90
19945;DHT22;10134;50.952;6.930;2023-05-14T09:40:21;18.30;99.90
19945;DHT22;10134;50.952;6.930;2023-05-14T09:42:49;18.30;99.90
19945;DHT22;10134;50.952;6.930;2023-05-14T09:45:17;18.40;99.90
19945;DHT22;10134;50.952;6.930;2023-05-14T09:47:44;18.40;99.90
19945;DHT22;10134;50.952;6.930;2023-05-14T09:50:12;18.50;99.90
19945;DHT22;10134;50.952;6.930;2023-05-14T09:52:39;18.60;99.90
19945;DHT22;10134;50.952;6.930;2023-05-14T09:55:07;18.50;99.90
19945;DHT22;10134;50.952;6.930;2023-05-14T09:57:34;18.60;99.90
19945;DHT22;10134;50.952;6.930;2023-05-14T10:00:03;18.70;99.90
19945;DHT22;10134;50.952;6.930;2023-05-14T10:02:35;18.70;99.90
19945;DHT22;10134;50.952;6.930;2023-05-14T10:05:04;18.80;99.90
19945;DHT22;10134;50.952;6.930;2023-05-14T10:07:37;18.90;99.90
19945;DHT22;10134;50.952;6.930;2023-05-14T10:10:06;19.00;99.90
19945;DHT22;10134;50.952;6.930;2023-05-14T10:12:38;19.00;99.90
19945;DHT22;10134;50.952;6.930;2023-05-14T10:15:23;19.10;99.90
19945;DHT22;10134;50.952;6.930;2023-05-14T10:17:55;19.20;99.90
19945;DHT22;10134;50.952;6.930;2023-05-14T10:20:26;19.30;99.90
19945;DHT22;10134;50.952;6.930;2023-05-14T10:22:54;19.40;99.90
19945;DHT22;10134;50.952;6.930;2023-05-14T10:25:22;19.40;99.90
19945;DHT22;10134;50.952;6.930;2023-05-14T10:27:49;19.40;99.90
19945;DHT22;10134;50.952;6.930;2023-05-14T10:30:20;19.50;99.90
19945;DHT22;10134;50.952;6.930;2023-05-14T10:33:08;19.60;99.90
19945;DHT22;10134;50.952;6.930;2023-05-14T10:38:28;19.70;99.90
19945;DHT22;10134;50.952;6.930;2023-05-14T10:41:02;19.70;99.90
19945;DHT22;10134;50.952;6.930;2023-05-14T10:43:31;19.80;99.80
19945;DHT22;10134;50.952;6.930;2023-05-14T10:46:01;19.90;99.90
19945;DHT22;10134;50.952;6.930;2023-05-14T10:48:30;20.00;99.80
19945;DHT22;10134;50.952;6.930;2023-05-14T10:50:58;20.00;99.70
19945;DHT22;10134;50.952;6.930;2023-05-14T10:53:37;20.10;99.90
19945;DHT22;10134;50.952;6.930;2023-05-14T10:56:07;20.10;98.70
19945;DHT22;10134;50.952;6.930;2023-05-14T10:58:37;20.20;97.90
19945;DHT22;10134;50.952;6.930;2023-05-14T11:01:06;20.30;98.20
19945;DHT22;10134;50.952;6.930;2023-05-14T11:03:42;20.40;98.20
19945;DHT22;10134;50.952;6.930;2023-05-14T11:06:12;20.60;98.20
19945;DHT22;10134;50.952;6.930;2023-05-14T11:08:40;20.70;96.80
19945;DHT22;10134;50.952;6.930;2023-05-14T11:11:08;20.80;97.00
19945;DHT22;10134;50.952;6.930;2023-05-14T11:13:37;20.90;97.00
19945;DHT22;10134;50.952;6.930;2023-05-14T11:16:05;20.90;95.80
19945;DHT22;10134;50.952;6.930;2023-05-14T11:18:35;21.10;96.20
19945;DHT22;10134;50.952;6.930;2023-05-14T11:21:05;21.20;94.90
19945;DHT22;10134;50.952;6.930;2023-05-14T11:23:32;21.20;94.70
19945;DHT22;10134;50.952;6.930;2023-05-14T11:25:59;21.30;95.00
19945;DHT22;10134;50.952;6.930;2023-05-14T11:28:27;21.40;94.20
19945;DHT22;10134;50.952;6.930;2023-05-14T11:30:55;21.40;93.90
19945;DHT22;10134;50.952;6.930;2023-05-14T11:33:23;21.50;94.90
19945;DHT22;10134;50.952;6.930;2023-05-14T11:35:50;21.60;94.70
19945;DHT22;10134;50.952;6.930;2023-05-14T11:38:19;21.60;95.20
19945;DHT22;10134;50.952;6.930;2023-05-14T11:40:54;21.70;95.10
19945;DHT22;10134;50.952;6.930;2023-05-14T11:43:23;21.70;95.10
19945;DHT22;10134;50.952;6.930;2023-05-14T11:45:52;21.70;95.60
19945;DHT22;10134;50.952;6.930;2023-05-14T11:48:20;21.80;95.80
19945;DHT22;10134;50.952;6.930;2023-05-14T11:50:49;21.90;95.60
19945;DHT22;10134;50.952;6.930;2023-05-14T11:53:27;21.90;93.80
19945;DHT22;10134;50.952;6.930;2023-05-14T11:55:55;21.90;94.30
19945;DHT22;10134;50.952;6.930;2023-05-14T11:58:26;22.00;95.00
19945;DHT22;10134;50.952;6.930;2023-05-14T12:00:54;22.00;94.50
19945;DHT22;10134;50.952;6.930;2023-05-14T12:03:22;22.10;94.50
19945;DHT22;10134;50.952;6.930;2023-05-14T12:05:57;22.20;93.80
19945;DHT22;10134;50.952;6.930;2023-05-14T12:08:29;22.20;92.30
19945;DHT22;10134;50.952;6.930;2023-05-14T12:11:00;22.30;91.90
19945;DHT22;10134;50.952;6.930;2023-05-14T12:13:31;22.30;92.10
19945;DHT22;10134;50.952;6.930;2023-05-14T12:16:00;22.20;91.20
19945;DHT22;10134;50.952;6.930;2023-05-14T12:18:32;22.20;91.70
19945;DHT22;10134;50.952;6.930;2023-05-14T12:21:03;22.30;92.20
19945;DHT22;10134;50.952;6.930;2023-05-14T12:23:32;22.30;92.30
19945;DHT22;10134;50.952;6.930;2023-05-14T12:26:04;22.40;90.70
19945;DHT22;10134;50.952;6.930;2023-05-14T12:28:33;22.30;90.10
19945;DHT22;10134;50.952;6.930;2023-05-14T12:31:04;22.30;90.20
19945;DHT22;10134;50.952;6.930;2023-05-14T12:33:32;22.40;89.50
19945;DHT22;10134;50.952;6.930;2023-05-14T12:35:59;22.30;87.70
19945;DHT22;10134;50.952;6.930;2023-05-14T12:38:40;22.30;88.40
19945;DHT22;10134;50.952;6.930;2023-05-14T12:41:07;22.30;88.90
19945;DHT22;10134;50.952;6.930;2023-05-14T12:43:35;22.30;88.50
19945;DHT22;10134;50.952;6.930;2023-05-14T12:46:02;22.40;86.00
19945;DHT22;10134;50.952;6.930;2023-05-14T12:48:29;22.40;85.00
19945;DHT22;10134;50.952;6.930;2023-05-14T12:50:57;22.50;83.50
19945;DHT22;10134;50.952;6.930;2023-05-14T12:53:24;22.50;81.10
19945;DHT22;10134;50.952;6.930;2023-05-14T12:55:53;22.60;82.10
19945;DHT22;10134;50.952;6.930;2023-05-14T12:58:20;22.70;83.20
19945;DHT22;10134;50.952;6.930;2023-05-14T13:00:48;22.80;81.20
19945;DHT22;10134;50.952;6.930;2023-05-14T13:03:15;22.90;80.20
19945;DHT22;10134;50.952;6.930;2023-05-14T13:05:43;23.10;80.10
19945;DHT22;10134;50.952;6.930;2023-05-14T13:08:10;23.10;76.30
19945;DHT22;10134;50.952;6.930;2023-05-14T13:10:40;23.20;75.00
19945;DHT22;10134;50.952;6.930;2023-05-14T13:13:08;23.30;72.80
19945;DHT22;10134;50.952;6.930;2023-05-14T13:15:36;23.30;73.30
19945;DHT22;10134;50.952;6.930;2023-05-14T13:18:03;23.30;73.80
19945;DHT22;10134;50.952;6.930;2023-05-14T13:20:32;23.40;72.80
19945;DHT22;10134;50.952;6.930;2023-05-14T13:23:00;23.40;73.10
19945;DHT22;10134;50.952;6.930;2023-05-14T13:25:27;23.40;71.50
19945;DHT22;10134;50.952;6.930;2023-05-14T13:27:54;23.40;72.70
19945;DHT22;10134;50.952;6.930;2023-05-14T13:30:22;23.30;73.10
19945;DHT22;10134;50.952;6.930;2023-05-14T13:32:50;23.10;72.70
19945;DHT22;10134;50.952;6.930;2023-05-14T13:35:18;23.00;79.70
19945;DHT22;10134;50.952;6.930;2023-05-14T13:37:45;22.80;85.70
19945;DHT22;10134;50.952;6.930;2023-05-14T13:40:13;22.60;84.50
19945;DHT22;10134;50.952;6.930;2023-05-14T13:42:41;22.40;83.10
19945;DHT22;10134;50.952;6.930;2023-05-14T13:45:09;22.40;84.90
19945;DHT22;10134;50.952;6.930;2023-05-14T13:47:37;22.40;75.60
19945;DHT22;10134;50.952;6.930;2023-05-14T13:50:06;22.50;73.30
19945;DHT22;10134;50.952;6.930;2023-05-14T13:52:34;22.60;73.20
19945;DHT22;10134;50.952;6.930;2023-05-14T13:55:01;22.70;71.20
19945;DHT22;10134;50.952;6.930;2023-05-14T13:57:29;22.90;72.80
19945;DHT22;10134;50.952;6.930;2023-05-14T13:59:56;23.00;75.00
19945;DHT22;10134;50.952;6.930;2023-05-14T14:02:23;23.10;72.70
19945;DHT22;10134;50.952;6.930;2023-05-14T14:04:51;23.10;73.40
19945;DHT22;10134;50.952;6.930;2023-05-14T14:07:18;23.10;71.70
19945;DHT22;10134;50.952;6.930;2023-05-14T14:09:47;23.10;73.10
19945;DHT22;10134;50.952;6.930;2023-05-14T14:12:14;23.00;73.80
19945;DHT22;10134;50.952;6.930;2023-05-14T14:14:42;23.00;73.40
19945;DHT22;10134;50.952;6.930;2023-05-14T14:17:09;23.10;72.90
19945;DHT22;10134;50.952;6.930;2023-05-14T14:19:36;23.10;73.50
19945;DHT22;10134;50.952;6.930;2023-05-14T14:22:04;23.20;71.00
19945;DHT22;10134;50.952;6.930;2023-05-14T14:24:31;23.30;71.00
19945;DHT22;10134;50.952;6.930;2023-05-14T14:26:58;23.50;71.70
19945;DHT22;10134;50.952;6.930;2023-05-14T14:29:27;23.60;68.70
19945;DHT22;10134;50.952;6.930;2023-05-14T14:31:57;23.80;66.50
19945;DHT22;10134;50.952;6.930;2023-05-14T14:34:24;24.20;66.00
19945;DHT22;10134;50.952;6.930;2023-05-14T14:36:51;24.40;65.40
19945;DHT22;10134;50.952;6.930;2023-05-14T14:39:19;24.60;65.20
19945;DHT22;10134;50.952;6.930;2023-05-14T14:41:47;24.90;64.10
19945;DHT22;10134;50.952;6.930;2023-05-14T14:44:16;25.00;63.20
19945;DHT22;10134;50.952;6.930;2023-05-14T14:46:46;25.00;62.90
19945;DHT22;10134;50.952;6.930;2023-05-14T14:49:14;25.50;62.30
19945;DHT22;10134;50.952;6.930;2023-05-14T14:51:41;26.10;61.10
19945;DHT22;10134;50.952;6.930;2023-05-14T14:54:08;26.60;62.00
19945;DHT22;10134;50.952;6.930;2023-05-14T14:56:36;26.90;60.30
19945;DHT22;10134;50.952;6.930;2023-05-14T14:59:03;26.90;58.80
19945;DHT22;10134;50.952;6.930;2023-05-14T15:01:30;26.80;58.40
19945;DHT22;10134;50.952;6.930;2023-05-14T15:03:58;26.80;59.10
19945;DHT22;10134;50.952;6.930;2023-05-14T15:06:25;26.60;59.00
19945;DHT22;10134;50.952;6.930;2023-05-14T15:08:52;26.50;58.60
19945;DHT22;10134;50.952;6.930;2023-05-14T15:11:20;26.40;58.40
19945;DHT22;10134;50.952;6.930;2023-05-14T15:13:48;26.30;59.20
19945;DHT22;10134;50.952;6.930;2023-05-14T15:16:15;26.30;59.20
19945;DHT22;10134;50.952;6.930;2023-05-14T15:18:42;26.30;58.80
19945;DHT22;10134;50.952;6.930;2023-05-14T15:21:10;26.20;58.80
19945;DHT22;10134;50.952;6.930;2023-05-14T15:23:37;26.10;59.10
19945;DHT22;10134;50.952;6.930;2023-05-14T15:26:04;26.00;59.40
19945;DHT22;10134;50.952;6.930;2023-05-14T15:28:32;25.90;60.20
19945;DHT22;10134;50.952;6.930;2023-05-14T15:30:59;25.80;60.20
19945;DHT22;10134;50.952;6.930;2023-05-14T15:33:28;25.80;60.00
19945;DHT22;10134;50.952;6.930;2023-05-14T15:35:55;25.80;61.10
19945;DHT22;10134;50.952;6.930;2023-05-14T15:38:23;25.70;59.50
19945;DHT22;10134;50.952;6.930;2023-05-14T15:40:50;25.70;60.20
19945;DHT22;10134;50.952;6.930;2023-05-14T15:43:18;25.70;59.90
19945;DHT22;10134;50.952;6.930;2023-05-14T15:45:45;25.70;59.80
19945;DHT22;10134;50.952;6.930;2023-05-14T15:48:12;25.60;60.40